Latest Weather Observations for Wangaratta

IDV60801

Issued at 6:31 am EST Friday 28 August 2015 (issued every 30 minutes, with the page automatically refreshed every 10 minutes)

About weather observations | Map of weather stations | Latest weather observations for VIC | Other Formats
Station Details ID: 082138 Name: WANGARATTA AERO Lat: -36.42 Lon: 146.31 Height: 152.6 m
Data from the previous 72 hours. | See also: Recent months at Wangaratta
Date/Time
EST
Temp
°C
App
Temp
°C
Dew
Point
Rel
Hum
%
Delta-T
°C
Wind Press
QNH
hPa
Press
MSL
hPa
Rain
since 9 am
mm
Dir
 
Spd
km/h
Gust
km/h
Spd
kts
Gust
kts
28/06:30am 5.8 2.9 4.4 91 0.6 SE 9 11 5 6 1021.7 1022.0 1.2
28/06:00am 8.3 4.2 6.1 86 1.0 SW 17 22 9 12 1021.2 1021.5 1.2
28/05:30am 8.0 4.2 6.0 87 0.9 SW 15 17 8 9 1020.8 1021.1 1.2
28/05:00am 8.4 4.0 6.4 87 0.9 SW 19 24 10 13 1020.6 1020.9 1.2
28/04:30am 7.9 4.2 6.4 90 0.7 SW 15 20 8 11 1020.3 1020.6 1.2
28/04:00am 8.2 4.2 6.5 89 0.8 SW 17 22 9 12 1020.3 1020.6 1.2
28/03:30am 8.6 4.0 6.7 88 0.9 SW 20 24 11 13 1020.1 1020.4 1.2
28/03:00am 7.8 4.5 6.3 90 0.7 SSW 13 17 7 9 1020.2 1020.5 1.2
28/02:30am 7.8 4.5 6.6 92 0.6 SSW 13 17 7 9 1020.2 1020.5 1.2
28/02:00am 8.1 4.9 6.7 91 0.6 SSW 13 17 7 9 1020.3 1020.6 1.2
28/01:30am 8.4 5.5 6.7 89 0.8 SSW 11 15 6 8 1020.3 1020.6 1.2
28/01:00am 8.9 6.1 7.0 88 0.9 SSW 11 17 6 9 1020.3 1020.6 1.2
28/12:30am 8.2 6.3 6.8 91 0.7 SE 6 9 3 5 1020.2 1020.5 1.2
28/12:00am 8.9 6.8 6.7 86 1.0 S 7 9 4 5 1020.0 1020.3 1.2
 
Date/Time
EST
Temp
°C
App
Temp
°C
Dew
Point
Rel
Hum
%
Delta-T
°C
Wind Press
QNH
hPa
Press
MSL
hPa
Rain
since 9 am
mm
Dir
 
Spd
km/h
Gust
km/h
Spd
kts
Gust
kts
27/11:30pm 8.7 6.3 6.8 88 0.9 SW 9 11 5 6 1020.0 1020.3 1.2
27/11:00pm 8.7 5.5 6.8 88 0.9 SW 13 15 7 8 1020.0 1020.3 1.2
27/10:30pm 8.0 5.1 6.5 90 0.7 SW 11 17 6 9 1020.0 1020.3 1.2
27/10:00pm 7.8 4.5 6.4 91 0.6 SW 13 19 7 10 1019.9 1020.1 1.2
27/09:30pm 7.7 4.8 6.5 92 0.6 SW 11 19 6 10 1019.9 1020.1 1.2
27/09:00pm 8.2 5.7 6.5 89 0.8 WSW 9 17 5 9 1019.9 1020.1 1.2
27/08:30pm 8.2 5.2 6.2 87 0.9 W 11 15 6 8 1019.8 1020.0 1.2
27/08:00pm 9.0 5.6 6.1 82 1.3 WSW 13 19 7 10 1019.9 1020.1 1.2
27/07:30pm 9.3 4.6 6.0 80 1.5 WSW 20 26 11 14 1019.6 1019.8 1.2
27/07:00pm 9.2 4.1 5.8 79 1.6 WSW 22 30 12 16 1019.4 1019.6 1.2
27/06:30pm 9.4 4.3 5.9 79 1.6 WSW 22 30 12 16 1019.1 1019.3 1.2
27/06:00pm 9.8 3.9 6.0 77 1.8 WSW 26 35 14 19 1018.8 1019.0 1.2
27/05:30pm 10.8 5.9 6.7 76 2.0 SW 22 35 12 19 1018.6 1018.8 1.2
27/05:00pm 11.3 7.6 9.4 88 1.0 SW 19 26 10 14 1018.1 1018.4 1.2
27/04:30pm 11.1 7.1 9.2 88 1.0 WSW 20 24 11 13 1017.8 1018.1 1.0
27/04:00pm 11.2 8.5 9.1 87 1.1 SW 13 19 7 10 1018.0 1018.3 1.0
27/03:30pm 11.3 7.8 8.7 84 1.3 WSW 17 26 9 14 1018.2 1018.5 0.8
27/03:00pm 12.1 8.9 9.8 86 1.2 W 17 24 9 13 1018.3 1018.6 0.8
27/02:30pm 12.4 10.2 9.2 81 1.6 WSW 11 15 6 8 1018.1 1018.4 0.8
27/02:00pm 12.4 9.3 8.9 79 1.8 SW 15 22 8 12 1018.5 1018.7 0.8
27/01:30pm 11.6 9.6 10.2 91 0.7 SSW 11 15 6 8 1018.7 1018.9 0.8
27/01:00pm 11.0 7.4 8.4 84 1.3 WSW 17 24 9 13 1019.0 1019.2 0.0
27/12:30pm 14.3 12.0 9.1 71 2.7 NW 11 17 6 9 1018.8 1019.0 0.0
27/12:00pm 12.8 10.8 8.5 75 2.2 WNW 9 15 5 8 1019.5 1019.7 0.0
27/11:30am 12.8 11.4 7.3 69 2.7 SW 4 9 2 5 1019.9 1020.1 0.0
27/11:00am 12.9 10.8 8.4 74 2.2 NW 9 13 5 7 1020.2 1020.5 0.0
27/10:30am 12.2 10.5 8.3 77 1.9 WSW 7 11 4 6 1020.5 1020.8 0.0
27/10:00am 11.2 10.4 9.5 89 0.9 NNW 4 7 2 4 1020.6 1020.9 0.0
27/09:30am 10.2 8.5 9.7 97 0.3 W 9 13 5 7 1020.7 1021.0 0.0
27/09:00am 10.0 9.2 9.7 98 0.2 E 4 6 2 3 1020.7 1021.0 23.0
27/08:30am 9.7 8.3 9.6 99 0.1 S 7 11 4 6 1020.7 1021.0 23.0
27/08:00am 9.4 8.0 9.4 100 0.0 W 7 9 4 5 1020.9 1021.2 23.0
27/07:30am 9.2 7.9 9.2 100 0.0 W 6 9 3 5 1020.6 1020.9 23.0
27/07:00am 9.1 7.8 9.1 100 0.0 SSW 6 6 3 3 1020.2 1020.5 23.0
27/06:30am 9.0 8.8 8.9 99 0.0 CALM 0 0 0 0 1020.0 1020.3 22.8
27/06:27am 9.0 8.8 8.9 99 0.0 CALM 0 0 0 0 1020.1 1020.4 22.8
27/06:06am 9.0 8.8 8.9 99 0.0 CALM 0 0 0 0 1020.1 1020.4 22.6
27/06:00am 9.1 8.9 9.0 99 0.0 CALM 0 0 0 0 1019.9 1020.1 22.6
27/05:30am 9.4 9.3 9.3 99 0.0 CALM 0 0 0 0 1020.0 1020.3 22.4
27/05:00am 9.3 8.4 9.2 99 0.0 SW 4 7 2 4 1019.7 1019.9 22.2
27/04:30am 9.5 9.4 9.4 99 0.0 CALM 0 0 0 0 1019.9 1020.1 21.4
27/04:28am 9.5 9.4 9.4 99 0.0 CALM 0 0 0 0 1019.9 1020.1 21.4
27/04:11am 9.6 9.5 9.5 99 0.1 CALM 0 0 0 0 1020.0 1020.3 20.4
27/04:01am 9.6 9.5 9.5 99 0.1 CALM 0 0 0 0 1020.1 1020.4 19.8
27/04:00am 9.6 9.5 9.5 99 0.0 CALM 0 0 0 0 1020.1 1020.4 19.8
27/03:35am 9.6 9.1 9.5 99 0.1 S 2 6 1 3 1020.2 1020.5 18.4
27/03:30am 9.6 8.8 9.5 99 0.1 S 4 7 2 4 1020.2 1020.5 18.0
27/03:23am 9.6 8.4 9.5 99 0.1 SSE 6 7 3 4 1020.1 1020.4 17.6
27/03:11am 9.7 8.5 9.6 99 0.1 SE 6 7 3 4 1020.2 1020.5 16.8
27/03:00am 9.7 8.3 9.6 99 0.1 SSE 7 9 4 5 1020.4 1020.7 16.0
27/02:52am 9.7 8.3 9.6 99 0.1 SSE 7 9 4 5 1020.4 1020.7 15.8
27/02:40am 9.8 8.4 9.7 99 0.1 SE 7 11 4 6 1020.7 1021.0 15.4
27/02:30am 9.8 8.4 9.7 99 0.1 S 7 11 4 6 1020.9 1021.2 14.2
27/02:00am 10.0 7.6 9.9 99 0.1 SSW 13 17 7 9 1021.0 1021.3 11.8
27/01:58am 10.0 7.6 9.9 99 0.1 SSW 13 17 7 9 1021.0 1021.3 11.8
27/01:30am 9.9 7.4 9.8 99 0.1 S 13 17 7 9 1021.1 1021.4 8.6
27/01:26am 9.8 8.1 9.7 99 0.1 SSW 9 15 5 8 1021.2 1021.5 7.8
27/01:00am 10.0 8.3 9.9 99 0.1 W 9 11 5 6 1021.8 1022.1 4.8
27/12:30am 9.9 8.5 9.4 97 0.3 NW 7 9 4 5 1022.2 1022.5 2.6
27/12:00am 10.1 8.0 9.6 97 0.3 N 11 15 6 8 1022.3 1022.6 1.0
 
Date/Time
EST
Temp
°C
App
Temp
°C
Dew
Point
Rel
Hum
%
Delta-T
°C
Wind Press
QNH
hPa
Press
MSL
hPa
Rain
since 9 am
mm
Dir
 
Spd
km/h
Gust
km/h
Spd
kts
Gust
kts
26/11:30pm 9.6 9.4 9.0 96 0.3 CALM 0 4 0 2 1021.9 1022.2 0.8
26/11:00pm 9.9 8.9 8.8 93 0.5 S 4 7 2 4 1022.0 1022.3 0.8
26/10:30pm 10.4 8.6 9.3 93 0.6 S 9 11 5 6 1022.2 1022.5 0.8
26/10:00pm 9.9 8.1 9.3 96 0.3 SSW 9 11 5 6 1022.7 1023.0 0.8
26/09:30pm 9.8 8.3 9.0 95 0.4 S 7 9 4 5 1022.7 1023.0 0.8
26/09:00pm 9.8 7.5 8.9 94 0.4 SSE 11 13 6 7 1022.8 1023.1 0.6
26/08:30pm 10.3 9.1 9.5 95 0.4 S 6 9 3 5 1023.0 1023.3 0.6
26/08:00pm 10.6 10.2 9.7 94 0.5 NE 2 6 1 3 1023.1 1023.4 0.6
26/07:30pm 10.8 9.6 9.6 92 0.6 W 6 7 3 4 1023.0 1023.3 0.6
26/07:00pm 10.8 9.6 9.7 93 0.6 SW 6 7 3 4 1023.0 1023.3 0.6
26/06:30pm 11.1 9.9 9.4 89 0.9 SW 6 7 3 4 1022.7 1023.0 0.6
26/06:00pm 11.5 10.0 9.1 85 1.2 SSW 7 9 4 5 1022.6 1022.9 0.6
26/05:30pm 12.0 9.3 9.0 82 1.5 SSW 13 19 7 10 1022.5 1022.8 0.4
26/05:00pm 12.7 10.0 8.8 77 2.0 SSW 13 20 7 11 1022.4 1022.7 0.4
26/04:30pm 12.8 10.4 8.5 75 2.2 SSW 11 17 6 9 1022.3 1022.6 0.4
26/04:00pm 13.1 10.6 8.2 72 2.4 SW 11 15 6 8 1022.6 1022.9 0.4
26/03:30pm 13.3 11.1 8.0 70 2.6 S 9 11 5 6 1022.7 1023.0 0.4
26/03:00pm 13.3 11.9 7.3 67 2.9 SSW 4 7 2 4 1022.9 1023.2 0.4
26/02:30pm 13.6 12.5 6.7 63 3.4 SE 2 6 1 3 1023.0 1023.3 0.4
26/02:00pm 13.7 11.3 6.8 63 3.3 SE 9 13 5 7 1022.9 1023.2 0.0
26/01:30pm 13.2 10.6 6.3 63 3.3 S 9 13 5 7 1023.2 1023.5 0.0
26/01:00pm 12.9 10.3 6.0 63 3.3 SSE 9 13 5 7 1023.6 1023.9 0.0
26/12:30pm 12.6 10.4 6.4 66 3.0 SSE 7 9 4 5 1024.1 1024.4 0.0
26/12:00pm 12.4 10.4 6.2 66 2.9 S 6 7 3 4 1024.6 1024.9 0.0
26/11:30am 12.3 10.8 6.6 68 2.7 SW 4 6 2 3 1025.1 1025.4 0.0
26/11:00am 12.0 11.1 6.1 67 2.8 CALM 0 6 0 3 1025.5 1025.8 0.0
26/10:30am 12.0 9.7 5.0 62 3.2 S 6 7 3 4 1025.7 1026.0 0.0
26/10:00am 11.7 10.9 6.4 70 2.5 CALM 0 0 0 0 1025.7 1026.0 0.0
26/09:30am 10.8 9.6 6.6 75 2.0 SW 2 6 1 3 1025.8 1026.1 0.0
26/09:00am 10.1 7.2 6.3 77 1.8 SE 11 13 6 7 1025.5 1025.8 3.4
26/08:30am 9.2 7.4 7.8 91 0.7 S 7 9 4 5 1025.6 1025.9 3.2
26/08:00am 7.9 7.4 7.8 99 0.0 CALM 0 0 0 0 1025.2 1025.5 3.2
26/07:30am 7.0 6.3 6.9 99 0.0 CALM 0 0 0 0 1025.0 1025.3 3.2
26/07:00am 6.0 5.1 5.9 99 0.0 CALM 0 0 0 0 1024.5 1024.8 3.2
26/06:30am 6.1 4.0 6.0 99 0.0 SW 6 6 3 3 1024.3 1024.6 3.2
26/06:00am 5.5 3.3 5.4 99 0.0 S 6 6 3 3 1024.0 1024.3 3.2
26/05:30am 6.0 3.9 5.9 99 0.0 SSW 6 7 3 4 1023.9 1024.2 3.2
26/05:00am 5.1 2.6 5.0 99 0.0 SW 7 7 4 4 1023.8 1024.1 3.2
26/04:30am 6.4 5.6 6.3 99 0.0 CALM 0 0 0 0 1023.7 1024.0 3.2
26/04:00am 6.0 5.0 5.7 98 0.1 CALM 0 0 0 0 1023.8 1024.1 3.2
26/03:30am 6.7 5.9 6.3 97 0.2 CALM 0 0 0 0 1023.7 1024.0 3.2
26/03:00am 7.1 5.2 6.7 97 0.2 WSW 6 7 3 4 1023.8 1024.1 3.2
26/02:30am 7.2 5.1 6.6 96 0.3 WSW 7 7 4 4 1023.9 1024.2 3.2
26/02:00am 7.5 5.5 6.9 96 0.3 W 7 9 4 5 1024.1 1024.4 3.2
26/01:30am 7.4 5.3 6.7 95 0.3 NW 7 9 4 5 1024.2 1024.5 3.2
26/01:00am 8.5 7.8 7.1 91 0.7 CALM 0 0 0 0 1024.3 1024.6 3.2
26/12:30am 8.8 8.1 6.9 88 0.9 CALM 0 6 0 3 1024.2 1024.5 3.2
26/12:00am 8.8 6.4 7.1 89 0.8 S 9 11 5 6 1024.2 1024.5 3.2
 
Date/Time
EST
Temp
°C
App
Temp
°C
Dew
Point
Rel
Hum
%
Delta-T
°C
Wind Press
QNH
hPa
Press
MSL
hPa
Rain
since 9 am
mm
Dir
 
Spd
km/h
Gust
km/h
Spd
kts
Gust
kts
25/11:30pm 8.4 6.6 7.8 96 0.3 SW 7 9 4 5 1024.5 1024.8 3.2
25/11:00pm 8.6 7.3 7.8 95 0.4 SW 4 7 2 4 1024.8 1025.1 3.2
25/10:30pm 8.8 8.1 7.1 89 0.8 CALM 0 0 0 0 1025.1 1025.4 3.2
25/10:00pm 8.9 6.9 7.0 88 0.9 S 7 13 4 7 1024.9 1025.2 3.2
25/09:30pm 9.0 6.2 7.1 88 0.9 S 11 15 6 8 1024.8 1025.1 3.2
25/09:00pm 9.1 6.1 7.5 90 0.8 S 13 15 7 8 1024.9 1025.2 3.2
25/08:30pm 9.4 7.5 9.1 98 0.1 S 9 11 5 6 1024.9 1025.2 3.0
25/08:00pm 9.6 8.1 9.3 98 0.1 SSE 7 9 4 5 1024.8 1025.1 3.0
25/07:30pm 9.6 8.3 9.1 97 0.2 ESE 6 7 3 4 1024.6 1024.9 2.6
25/07:00pm 9.7 8.2 9.1 96 0.3 E 7 9 4 5 1024.5 1024.8 2.4
25/06:30pm 10.0 7.7 8.9 93 0.5 ENE 11 15 6 8 1024.2 1024.5 2.2
25/06:00pm 11.0 9.8 10.2 95 0.4 N 7 9 4 5 1023.8 1024.1 1.4
25/05:30pm 11.3 9.8 10.4 94 0.5 N 9 11 5 6 1023.3 1023.6 0.6
25/05:00pm 11.6 9.7 10.5 93 0.6 NNE 11 17 6 9 1022.8 1023.1 0.2
25/04:30pm 12.1 9.1 10.5 90 0.8 NNE 17 20 9 11 1022.4 1022.7 0.2
25/04:00pm 12.6 10.7 10.5 87 1.1 N 11 13 6 7 1022.0 1022.3 0.2
25/03:30pm 12.5 10.4 9.7 83 1.4 N 11 13 6 7 1021.9 1022.2 0.0
25/03:00pm 12.8 9.8 9.1 78 1.9 N 15 17 8 9 1021.8 1022.1 0.0
25/02:30pm 14.3 12.2 8.3 67 3.0 ENE 9 17 5 9 1021.5 1021.8 0.0
25/02:00pm 15.0 12.9 6.8 58 4.0 ESE 7 9 4 5 1021.2 1021.5 0.0
25/01:30pm 14.9 11.8 5.7 54 4.4 S 11 17 6 9 1021.2 1021.5 0.0
25/01:00pm 15.0 12.0 7.8 62 3.6 SSW 13 17 7 9 1021.1 1021.4 0.0
25/12:30pm 14.6 11.9 7.4 62 3.6 SSW 11 17 6 9 1021.2 1021.5 0.0
25/12:00pm 14.1 11.3 6.9 62 3.5 S 11 19 6 10 1021.4 1021.7 0.0
25/11:30am 13.7 9.2 6.1 60 3.6 SSE 19 24 10 13 1021.6 1021.9 0.0
25/11:00am 13.7 9.1 6.3 61 3.6 S 20 28 11 15 1021.4 1021.7 0.0
25/10:30am 13.5 9.4 6.4 62 3.4 S 17 24 9 13 1021.4 1021.7 0.0
25/10:00am 12.9 9.2 6.3 64 3.2 S 15 20 8 11 1021.3 1021.6 0.0
25/09:30am 12.7 9.3 6.1 64 3.1 S 13 19 7 10 1021.3 1021.6 0.0
25/09:00am 12.6 8.8 5.8 63 3.2 S 15 20 8 11 1021.1 1021.4 1.8
25/08:30am 11.9 9.3 6.0 67 2.8 S 9 13 5 7 1021.0 1021.3 1.8
25/08:00am 11.1 8.4 5.4 68 2.6 S 9 13 5 7 1020.9 1021.2 1.8
25/07:30am 10.8 7.6 5.3 69 2.5 S 11 13 6 7 1020.5 1020.8 1.8
25/07:00am 9.6 6.9 5.8 77 1.7 S 9 13 5 7 1020.2 1020.5 1.8

Other Formats:

Comma delimited format used in spreadsheet applications
http://www.bom.gov.au/fwo/IDV60801/IDV60801.94889.axf

JavaScript Object Notation format (JSON) in row-major order
http://www.bom.gov.au/fwo/IDV60801/IDV60801.94889.json